createdAt,value
2022-11-18T00:00:56.697Z,94477.59
2022-11-18T00:03:23.879Z,94455.97
2022-11-18T00:05:57.559Z,94476.75
2022-11-18T00:08:25.802Z,94468.31
2022-11-18T00:10:54.043Z,94469.94
2022-11-18T00:13:39.728Z,94460.38
2022-11-18T00:16:11.226Z,94457.50
2022-11-18T00:18:38.871Z,94433.81
2022-11-18T00:21:08.613Z,94459.03
2022-11-18T00:23:36.051Z,94445.25
2022-11-18T00:26:11.313Z,94455.13
2022-11-18T00:28:38.942Z,94446.84
2022-11-18T00:31:14.798Z,94441.38
2022-11-18T00:33:41.426Z,94458.84
2022-11-18T00:36:10.522Z,94424.28
2022-11-18T00:38:37.700Z,94415.91
2022-11-18T00:41:13.150Z,94442.22
2022-11-18T00:43:40.352Z,94446.78
2022-11-18T00:46:09.678Z,94431.97
2022-11-18T00:48:37.186Z,94437.81
2022-11-18T00:51:18.934Z,94424.09
2022-11-18T00:53:45.597Z,94416.94
2022-11-18T00:56:12.205Z,94427.84
2022-11-18T00:58:38.843Z,94439.31
2022-11-18T01:01:05.786Z,94438.56
2022-11-18T01:03:32.628Z,94444.81
2022-11-18T01:05:59.241Z,94409.69
2022-11-18T01:08:26.147Z,94444.16
2022-11-18T01:10:53.588Z,94428.50
2022-11-18T01:13:23.130Z,94427.66
2022-11-18T01:15:55.468Z,94428.34
2022-11-18T01:18:26.356Z,94391.16
2022-11-18T01:20:53.162Z,94437.38
2022-11-18T01:23:20.598Z,94433.66
2022-11-18T01:25:49.334Z,94415.84
2022-11-18T01:28:21.976Z,94435.59
2022-11-18T01:30:50.132Z,94417.34
2022-11-18T01:33:16.729Z,94430.63
2022-11-18T01:35:44.008Z,94437.81
2022-11-18T01:38:12.906Z,94423.34
2022-11-18T01:40:40.157Z,94421.84
2022-11-18T01:43:13.487Z,94400.66
2022-11-18T01:45:42.582Z,94437.81
2022-11-18T01:48:20.747Z,94431.47
2022-11-18T01:51:02.011Z,94398.44
2022-11-18T01:53:33.924Z,94400.47
2022-11-18T01:56:08.546Z,94410.69
2022-11-18T01:58:42.482Z,94384.00
2022-11-18T02:01:09.529Z,94412.22
2022-11-18T02:03:36.769Z,94416.19
2022-11-18T02:06:05.303Z,94412.97
2022-11-18T02:08:33.642Z,94417.88
2022-11-18T02:11:00.206Z,94399.69
2022-11-18T02:13:26.833Z,94428.84
2022-11-18T02:16:05.565Z,94422.84
2022-11-18T02:19:00.356Z,94423.53
2022-11-18T02:21:34.136Z,94421.66
2022-11-18T02:24:31.647Z,94419.06
2022-11-18T02:27:21.368Z,94419.53
2022-11-18T02:30:08.884Z,94399.88
2022-11-18T02:32:43.437Z,94428.91
2022-11-18T02:35:42.674Z,94430.38
2022-11-18T02:38:13.450Z,94427.00
2022-11-18T02:40:45.312Z,94430.72
2022-11-18T02:43:19.764Z,94433.66
2022-11-18T02:45:50.975Z,94422.34
2022-11-18T02:48:20.724Z,94429.94
2022-11-18T02:50:50.415Z,94424.22
2022-11-18T02:53:19.885Z,94441.38
2022-11-18T02:55:48.547Z,94434.59
2022-11-18T02:58:17.878Z,94443.97
2022-11-18T03:00:44.668Z,94442.47
2022-11-18T03:03:37.703Z,94443.66
2022-11-18T03:06:04.335Z,94446.59
2022-11-18T03:08:38.137Z,94443.66
2022-11-18T03:11:32.868Z,94447.84
2022-11-18T03:14:24.754Z,94438.66
2022-11-18T03:17:02.041Z,94440.53
2022-11-18T03:19:44.366Z,94429.44
2022-11-18T03:22:26.470Z,94441.53
2022-11-18T03:25:04.254Z,94419.81
2022-11-18T03:27:38.460Z,94413.06
2022-11-18T03:30:10.406Z,94438.91
2022-11-18T03:32:42.080Z,94402.41
2022-11-18T03:35:14.437Z,94440.00
2022-11-18T03:37:42.209Z,94438.06
2022-11-18T03:40:21.460Z,94430.13
2022-11-18T03:42:57.663Z,94437.72
2022-11-18T03:45:34.793Z,94440.59
2022-11-18T03:48:14.029Z,94455.56
2022-11-18T03:50:48.036Z,94422.50
2022-11-18T03:53:17.978Z,94417.78
2022-11-18T03:55:50.719Z,94429.09
2022-11-18T03:58:23.375Z,94455.56
2022-11-18T04:00:57.963Z,94458.53
2022-11-18T04:03:26.201Z,94461.38
2022-11-18T04:06:05.178Z,94456.06
2022-11-18T04:08:36.833Z,94431.72
2022-11-18T04:11:33.839Z,94456.06
2022-11-18T04:14:01.327Z,94422.59
2022-11-18T04:16:27.987Z,94412.31
2022-11-18T04:18:54.610Z,94455.56
2022-11-18T04:21:21.277Z,94442.63
2022-11-18T04:23:47.836Z,94440.84
2022-11-18T04:26:14.480Z,94478.28
2022-11-18T04:28:41.082Z,94468.91
2022-11-18T04:31:07.842Z,94461.31
2022-11-18T04:33:34.427Z,94484.94
2022-11-18T04:36:01.084Z,94455.47
2022-11-18T04:38:27.703Z,94436.38
2022-11-18T04:40:54.286Z,94482.00
2022-11-18T04:43:20.888Z,94474.25
2022-11-18T04:45:47.487Z,94513.81
2022-11-18T04:48:14.605Z,94521.06
2022-11-18T04:50:41.271Z,94491.56
2022-11-18T04:53:07.905Z,94493.34
2022-11-18T04:55:37.902Z,94484.63
2022-11-18T04:58:04.521Z,94505.50
2022-11-18T05:00:31.151Z,94453.03
2022-11-18T05:02:57.791Z,94491.16
2022-11-18T05:05:24.465Z,94491.91
2022-11-18T05:07:51.567Z,94504.09
2022-11-18T05:10:18.204Z,94502.53
2022-11-18T05:12:50.678Z,94496.53
2022-11-18T05:15:21.505Z,94481.16
2022-11-18T05:17:48.526Z,94460.53
2022-11-18T05:20:15.633Z,94494.59
2022-11-18T05:22:42.418Z,94455.22
2022-11-18T05:25:09.551Z,94485.88
2022-11-18T05:27:36.171Z,94474.25
2022-11-18T05:30:03.076Z,94478.38
2022-11-18T05:32:29.713Z,94486.66
2022-11-18T05:34:56.282Z,94503.41
2022-11-18T05:37:23.005Z,94494.53
2022-11-18T05:39:49.613Z,94516.66
2022-11-18T05:42:34.882Z,94519.81
2022-11-18T05:45:01.523Z,94517.34
2022-11-18T05:47:28.176Z,94528.50
2022-11-18T05:49:54.836Z,94509.47
2022-11-18T05:52:21.391Z,94503.41
2022-11-18T05:54:51.144Z,94536.88
2022-11-18T05:57:17.989Z,94522.78
2022-11-18T05:59:44.693Z,94513.22
2022-11-18T06:02:16.641Z,94548.81
2022-11-18T06:04:59.931Z,94514.22
2022-11-18T06:07:38.388Z,94545.69
2022-11-18T06:10:06.365Z,94530.13
2022-11-18T06:12:41.799Z,94520.66
2022-11-18T06:15:20.366Z,94541.22
2022-11-18T06:17:56.295Z,94522.25
2022-11-18T06:20:23.828Z,94541.34
2022-11-18T06:22:54.849Z,94528.50
2022-11-18T06:25:22.276Z,94540.94
2022-11-18T06:27:51.936Z,94535.00
2022-11-18T06:30:18.656Z,94520.31
2022-11-18T06:32:45.230Z,94520.13
2022-11-18T06:35:11.913Z,94512.53
2022-11-18T06:37:38.527Z,94534.66
2022-11-18T06:40:05.606Z,94538.50
2022-11-18T06:42:50.868Z,94511.50
2022-11-18T06:45:17.522Z,94539.84
2022-11-18T06:47:44.268Z,94542.88
2022-11-18T06:50:11.345Z,94520.47
2022-11-18T06:52:38.009Z,94513.97
2022-11-18T06:55:08.033Z,94515.22
2022-11-18T06:57:35.415Z,94506.69
2022-11-18T07:00:02.708Z,94532.59
2022-11-18T07:02:29.589Z,94558.59
2022-11-18T07:04:56.200Z,94521.84
2022-11-18T07:07:22.840Z,94523.34
2022-11-18T07:09:49.520Z,94530.19
2022-11-18T07:12:16.144Z,94556.44
2022-11-18T07:14:42.807Z,94546.38
2022-11-18T07:17:09.416Z,94574.44
2022-11-18T07:19:36.244Z,94600.53
2022-11-18T07:22:02.922Z,94598.97
2022-11-18T07:24:30.431Z,94619.66
2022-11-18T07:26:57.461Z,94612.88
2022-11-18T07:29:24.209Z,94608.63
2022-11-18T07:31:50.910Z,94592.69
2022-11-18T07:34:17.742Z,94584.50
2022-11-18T07:36:44.349Z,94568.34
2022-11-18T07:39:11.063Z,94622.84
2022-11-18T07:41:40.180Z,94628.09
2022-11-18T07:44:07.464Z,94600.63
2022-11-18T07:46:36.270Z,94629.03
2022-11-18T07:49:05.714Z,94630.91
2022-11-18T07:51:35.030Z,94628.34
2022-11-18T07:54:05.444Z,94631.41
2022-11-18T07:56:32.097Z,94612.28
2022-11-18T07:58:58.671Z,94619.03
2022-11-18T08:01:30.957Z,94636.31
2022-11-18T08:03:58.865Z,94633.59
2022-11-18T08:06:25.543Z,94637.41
2022-11-18T08:08:52.544Z,94639.25
2022-11-18T08:11:22.563Z,94634.78
2022-11-18T08:13:50.244Z,94641.47
2022-11-18T08:16:20.214Z,94636.56
2022-11-18T08:18:47.254Z,94619.38
2022-11-18T08:21:15.345Z,94640.78
2022-11-18T08:23:42.821Z,94598.81
2022-11-18T08:26:10.990Z,94645.47
2022-11-18T08:28:37.997Z,94629.69
2022-11-18T08:31:19.634Z,94651.69
2022-11-18T08:33:46.614Z,94641.41
2022-11-18T08:36:16.301Z,94655.19
2022-11-18T08:38:42.908Z,94628.50
2022-11-18T08:41:31.115Z,94658.56
2022-11-18T08:43:57.862Z,94653.56
2022-11-18T08:46:24.473Z,94643.69
2022-11-18T08:48:51.185Z,94628.09
2022-11-18T08:51:17.949Z,94649.06
2022-11-18T08:53:44.826Z,94631.56
2022-11-18T08:56:20.205Z,94662.44
2022-11-18T08:58:47.071Z,94639.34
2022-11-18T09:01:13.825Z,94628.00
2022-11-18T09:03:41.071Z,94668.13
2022-11-18T09:06:21.224Z,94642.38
2022-11-18T09:08:47.905Z,94661.44
2022-11-18T09:11:23.386Z,94648.91
2022-11-18T09:16:42.743Z,94662.19
2022-11-18T09:19:39.710Z,94676.50
2022-11-18T09:21:55.942Z,94638.09
2022-11-18T09:24:22.614Z,94652.53
2022-11-18T09:26:50.005Z,94628.78
2022-11-18T09:29:16.611Z,94630.31
2022-11-18T09:31:43.314Z,94625.31
2022-11-18T09:34:10.449Z,94659.22
2022-11-18T09:36:37.942Z,94658.81
2022-11-18T09:39:04.637Z,94632.25
2022-11-18T09:42:00.710Z,94676.97
2022-11-18T09:44:48.979Z,94681.81
2022-11-18T09:47:31.898Z,94687.16
2022-11-18T09:50:10.634Z,94684.63
2022-11-18T09:53:14.267Z,94686.72
2022-11-18T09:55:41.716Z,94664.31
2022-11-18T09:58:18.205Z,94687.38
2022-11-18T10:00:46.127Z,94675.22
2022-11-18T10:03:33.617Z,94683.09
2022-11-18T10:06:10.039Z,94686.38
2022-11-18T10:08:45.868Z,94687.47
2022-11-18T10:11:14.828Z,94692.72
2022-11-18T10:13:47.497Z,94689.09
2022-11-18T10:16:16.824Z,94661.25
2022-11-18T10:19:00.380Z,94688.16
2022-11-18T10:21:40.751Z,94652.53
2022-11-18T10:24:16.664Z,94689.16
2022-11-18T10:26:43.448Z,94676.75
2022-11-18T10:29:11.037Z,94707.69
2022-11-18T10:32:01.114Z,94686.91
2022-11-18T10:34:32.369Z,94699.94
2022-11-18T10:37:31.043Z,94689.66
2022-11-18T10:40:06.562Z,94688.25
2022-11-18T10:42:48.718Z,94686.47
2022-11-18T10:45:21.505Z,94712.28
2022-11-18T10:47:57.225Z,94716.47
2022-11-18T10:50:36.571Z,94704.19
2022-11-18T10:53:03.885Z,94724.69
2022-11-18T10:55:31.535Z,94668.34
2022-11-18T10:58:16.532Z,94710.38
2022-11-18T11:00:47.308Z,94718.50
2022-11-18T11:03:31.613Z,94724.94
2022-11-18T11:06:23.593Z,94715.03
2022-11-18T11:09:06.471Z,94723.16
2022-11-18T11:11:37.769Z,94720.53
2022-11-18T11:14:20.497Z,94702.22
2022-11-18T11:16:59.054Z,94704.31
2022-11-18T11:19:34.446Z,94729.50
2022-11-18T11:22:01.189Z,94736.94
2022-11-18T11:24:28.370Z,94725.34
2022-11-18T11:29:59.607Z,94723.16
2022-11-18T11:32:32.182Z,94723.41
2022-11-18T11:35:22.057Z,94719.16
2022-11-18T11:38:17.035Z,94708.56
2022-11-18T11:41:07.025Z,94725.09
2022-11-18T11:43:45.474Z,94732.81
2022-11-18T11:46:43.135Z,94730.19
2022-11-18T11:49:19.705Z,94726.69
2022-11-18T11:51:54.639Z,94729.16
2022-11-18T11:54:31.266Z,94733.91
2022-11-18T11:57:33.435Z,94733.31
2022-11-18T12:00:12.540Z,94744.66
2022-11-18T12:02:51.238Z,94747.13
2022-11-18T12:05:39.160Z,94751.41
2022-11-18T12:08:24.527Z,94750.16
2022-11-18T12:10:59.622Z,94745.69
2022-11-18T12:13:54.074Z,94754.22
2022-11-18T12:16:35.951Z,94759.25
2022-11-18T12:19:11.162Z,94762.38
2022-11-18T12:21:46.869Z,94769.41
2022-11-18T12:24:32.983Z,94744.00
2022-11-18T12:27:12.453Z,94763.63
2022-11-18T12:29:51.231Z,94766.59
2022-11-18T12:32:23.874Z,94769.06
2022-11-18T12:35:00.889Z,94755.19
2022-11-18T12:37:27.480Z,94772.63
2022-11-18T12:40:00.125Z,94769.22
2022-11-18T12:43:03.058Z,94750.34
2022-11-18T12:45:42.143Z,94771.09
2022-11-18T12:48:27.405Z,94777.44
2022-11-18T12:50:56.487Z,94784.47
2022-11-18T12:53:39.874Z,94781.59
2022-11-18T12:56:22.599Z,94784.47
2022-11-18T12:58:52.194Z,94778.88
2022-11-18T13:01:24.112Z,94772.00
2022-11-18T13:03:52.256Z,94789.88
2022-11-18T13:06:26.201Z,94800.56
2022-11-18T13:08:57.888Z,94803.19
2022-11-18T13:11:44.655Z,94802.53
2022-11-18T13:14:37.431Z,94780.63
2022-11-18T13:17:54.922Z,94766.59
2022-11-18T13:20:24.530Z,94788.44
2022-11-18T13:23:15.994Z,94793.59
2022-11-18T13:25:47.040Z,94796.50
2022-11-18T13:28:54.587Z,94763.97
2022-11-18T13:31:53.016Z,94787.53
2022-11-18T13:34:26.084Z,94764.72
2022-11-18T13:36:55.008Z,94765.06
2022-11-18T13:39:23.643Z,94760.41
2022-11-18T13:42:14.633Z,94800.81
2022-11-18T13:45:13.847Z,94793.19
2022-11-18T13:47:52.595Z,94777.78
2022-11-18T13:50:40.914Z,94802.34
2022-11-18T13:53:37.227Z,94809.78
2022-11-18T13:56:22.178Z,94776.59
2022-11-18T13:59:17.415Z,94808.03
2022-11-18T14:01:44.493Z,94812.69
2022-11-18T14:04:25.495Z,94810.03
2022-11-18T14:06:52.372Z,94812.78
2022-11-18T14:09:22.101Z,94821.00
2022-11-18T14:12:15.073Z,94791.00
2022-11-18T14:14:44.485Z,94821.41
2022-11-18T14:17:28.901Z,94801.16
2022-11-18T14:19:58.355Z,94760.44
2022-11-18T14:22:27.854Z,94756.53
2022-11-18T14:25:04.022Z,94820.25
2022-11-18T14:27:43.411Z,94805.66
2022-11-18T14:30:31.823Z,94825.50
2022-11-18T14:33:24.338Z,94825.56
2022-11-18T14:35:54.769Z,94826.56
2022-11-18T14:38:52.423Z,94829.38
2022-11-18T14:41:15.046Z,94826.16
2022-11-18T14:43:46.068Z,94828.66
2022-11-18T14:46:17.089Z,94818.72
2022-11-18T14:48:44.656Z,94822.66
2022-11-18T14:51:15.827Z,94786.56
2022-11-18T14:53:44.133Z,94785.16
2022-11-18T14:56:27.443Z,94831.84
2022-11-18T14:58:54.305Z,94824.00
2022-11-18T15:01:29.144Z,94843.88
2022-11-18T15:03:56.993Z,94830.44
2022-11-18T15:06:24.671Z,94841.16
2022-11-18T15:08:52.960Z,94838.53
2022-11-18T15:11:20.185Z,94844.84
2022-11-18T15:13:47.041Z,94853.75
2022-11-18T15:16:19.804Z,94851.41
2022-11-18T15:18:50.770Z,94853.03
2022-11-18T15:21:17.463Z,94856.22
2022-11-18T15:23:44.216Z,94834.31
2022-11-18T15:26:41.475Z,94861.03
2022-11-18T15:29:16.680Z,94876.84
2022-11-18T15:31:43.329Z,94855.13
2022-11-18T15:34:09.975Z,94881.13
2022-11-18T15:36:36.629Z,94888.09
2022-11-18T15:39:03.685Z,94891.78
2022-11-18T15:41:31.346Z,94904.56
2022-11-18T15:43:59.811Z,94899.09
2022-11-18T15:46:30.028Z,94910.53
2022-11-18T15:48:58.325Z,94920.00
2022-11-18T15:51:26.716Z,94918.03
2022-11-18T15:53:53.656Z,94899.06
2022-11-18T15:56:23.374Z,94921.81
2022-11-18T15:58:58.709Z,94914.59
2022-11-18T16:01:27.710Z,94930.53
2022-11-18T16:03:54.712Z,94916.63
2022-11-18T16:06:22.351Z,94909.94
2022-11-18T16:08:50.373Z,94901.25
2022-11-18T16:11:38.285Z,94892.81
2022-11-18T16:14:07.150Z,94924.84
2022-11-18T16:16:35.068Z,94889.22
2022-11-18T16:19:04.758Z,94896.94
2022-11-18T16:21:37.134Z,94923.31
2022-11-18T16:24:06.331Z,94933.78
2022-11-18T16:26:34.316Z,94930.53
2022-11-18T16:29:01.563Z,94940.97
2022-11-18T16:31:40.242Z,94933.31
2022-11-18T16:34:10.374Z,94945.38
2022-11-18T16:36:38.576Z,94961.34
2022-11-18T16:39:13.585Z,94952.69
2022-11-18T16:41:41.169Z,94971.50
2022-11-18T16:44:11.899Z,94976.50
2022-11-18T16:46:40.955Z,94982.94
2022-11-18T16:49:12.003Z,94991.47
2022-11-18T16:51:40.050Z,94993.75
2022-11-18T16:54:09.540Z,94994.75
2022-11-18T16:56:36.209Z,95008.00
2022-11-18T16:59:10.977Z,95010.47
2022-11-18T17:01:37.608Z,95022.97
2022-11-18T17:04:04.447Z,94991.72
2022-11-18T17:06:32.034Z,95005.22
2022-11-18T17:08:59.561Z,94984.41
2022-11-18T17:11:26.613Z,95034.13
2022-11-18T17:13:57.717Z,94993.50
2022-11-18T17:16:26.228Z,95011.13
2022-11-18T17:18:58.904Z,95019.56
2022-11-18T17:21:27.485Z,95010.63
2022-11-18T17:23:54.540Z,95033.06
2022-11-18T17:26:27.504Z,94995.19
2022-11-18T17:28:57.212Z,95038.44
2022-11-18T17:31:24.673Z,94986.28
2022-11-18T17:33:53.617Z,95004.09
2022-11-18T17:36:22.410Z,95046.41
2022-11-18T17:38:50.975Z,94988.75
2022-11-18T17:41:38.762Z,95028.50
2022-11-18T17:44:07.930Z,95063.19
2022-11-18T17:46:38.011Z,95053.81
2022-11-18T17:49:10.056Z,95045.06
2022-11-18T17:51:36.907Z,95065.00
2022-11-18T17:54:03.593Z,95073.44
2022-11-18T17:56:30.237Z,95050.56
2022-11-18T17:58:56.934Z,95071.28
2022-11-18T18:01:24.004Z,95077.13
2022-11-18T18:03:50.920Z,95061.47
2022-11-18T18:06:19.029Z,95074.84
2022-11-18T18:08:45.708Z,95078.06
2022-11-18T18:11:19.304Z,95055.19
2022-11-18T18:14:05.077Z,95072.22
2022-11-18T18:16:33.446Z,95063.00
2022-11-18T18:19:01.531Z,95101.25
2022-11-18T18:21:28.467Z,95100.63
2022-11-18T18:23:55.075Z,95078.03
2022-11-18T18:26:25.357Z,95080.53
2022-11-18T18:28:55.289Z,95071.41
2022-11-18T18:31:21.930Z,95105.03
2022-11-18T18:33:48.634Z,95104.44
2022-11-18T18:36:18.109Z,95109.22
2022-11-18T18:38:45.351Z,95111.38
2022-11-18T18:41:17.264Z,95090.16
2022-11-18T18:43:44.485Z,95106.59
2022-11-18T18:46:30.992Z,95135.13
2022-11-18T18:49:20.304Z,95132.53
2022-11-18T18:51:51.204Z,95128.06
2022-11-18T18:54:19.967Z,95127.06
2022-11-18T18:56:46.914Z,95116.28
2022-11-18T18:59:13.603Z,95120.94
2022-11-18T19:01:40.869Z,95101.41
2022-11-18T19:04:10.471Z,95137.69
2022-11-18T19:06:59.024Z,95149.50
2022-11-18T19:09:26.174Z,95149.91
2022-11-18T19:12:12.331Z,95138.09
2022-11-18T19:14:39.626Z,95156.44
2022-11-18T19:17:10.716Z,95125.47
2022-11-18T19:19:58.453Z,95162.63
2022-11-18T19:22:26.015Z,95164.91
2022-11-18T19:24:53.654Z,95166.09
2022-11-18T19:27:21.618Z,95182.47
2022-11-18T19:29:48.241Z,95158.03
2022-11-18T19:32:15.468Z,95171.19
2022-11-18T19:34:42.248Z,95180.91
2022-11-18T19:37:08.841Z,95178.66
2022-11-18T19:39:35.517Z,95199.47
2022-11-18T19:42:02.369Z,95158.66
2022-11-18T19:44:29.225Z,95173.44
2022-11-18T19:46:55.800Z,95207.38
2022-11-18T19:49:22.921Z,95204.16
2022-11-18T19:51:49.720Z,95175.88
2022-11-18T19:54:16.307Z,95190.94
2022-11-18T19:56:43.083Z,95194.72
2022-11-18T19:59:12.437Z,95081.06
2022-11-18T20:01:39.173Z,95210.44
2022-11-18T20:04:05.908Z,95197.81
2022-11-18T20:06:34.782Z,95221.75
2022-11-18T20:09:02.670Z,95225.66
2022-11-18T20:11:29.531Z,95241.66
2022-11-18T20:13:56.207Z,95160.16
2022-11-18T20:16:25.366Z,95233.19
2022-11-18T20:18:57.712Z,95245.31
2022-11-18T20:21:26.076Z,95242.59
2022-11-18T20:24:01.551Z,95224.25
2022-11-18T20:26:31.433Z,95239.09
2022-11-18T20:28:58.079Z,95203.75
2022-11-18T20:31:26.346Z,95242.75
2022-11-18T20:33:54.652Z,95242.06
2022-11-18T20:36:26.968Z,95253.31
2022-11-18T20:38:56.234Z,95261.25
2022-11-18T20:41:24.118Z,95262.38
2022-11-18T20:43:51.259Z,95248.22
2022-11-18T20:46:21.351Z,95255.16
2022-11-18T20:48:49.571Z,95256.69
2022-11-18T20:51:17.748Z,95243.56
2022-11-18T20:53:44.693Z,95255.91
2022-11-18T20:56:17.729Z,95240.59
2022-11-18T20:58:45.140Z,95268.31
2022-11-18T21:01:17.629Z,95244.00
2022-11-18T21:03:55.132Z,95243.00
2022-11-18T21:06:27.364Z,95248.94
2022-11-18T21:08:55.889Z,95274.75
2022-11-18T21:11:22.600Z,95216.97
2022-11-18T21:14:07.930Z,95280.63
2022-11-18T21:16:34.723Z,95285.00
2022-11-18T21:19:01.392Z,95272.88
2022-11-18T21:21:46.254Z,95239.66
2022-11-18T21:24:15.109Z,95283.59
2022-11-18T21:26:42.434Z,95279.56
2022-11-18T21:29:11.077Z,95298.38
2022-11-18T21:31:37.995Z,95296.00
2022-11-18T21:34:06.102Z,95304.66
2022-11-18T21:36:33.582Z,95255.13
2022-11-18T21:39:03.828Z,95305.13
2022-11-18T21:41:30.938Z,95286.53
2022-11-18T21:44:05.463Z,95302.88
2022-11-18T21:46:34.797Z,95300.28
2022-11-18T21:49:02.481Z,95283.22
2022-11-18T21:51:32.126Z,95257.38
2022-11-18T21:54:00.283Z,95291.88
2022-11-18T21:56:30.578Z,95269.22
2022-11-18T21:58:59.001Z,95257.97
2022-11-18T22:01:29.715Z,95305.78
2022-11-18T22:03:58.856Z,95308.75
2022-11-18T22:06:27.167Z,95313.75
2022-11-18T22:08:53.793Z,95310.88
2022-11-18T22:11:22.397Z,95302.31
2022-11-18T22:13:51.213Z,95322.84
2022-11-18T22:16:19.829Z,95307.19
2022-11-18T22:18:54.803Z,95289.91
2022-11-18T22:21:23.856Z,95321.03
2022-11-18T22:23:50.531Z,95319.50
2022-11-18T22:26:19.462Z,95317.94
2022-11-18T22:28:47.473Z,95333.28
2022-11-18T22:31:20.525Z,95334.31
2022-11-18T22:33:48.208Z,95306.00
2022-11-18T22:36:16.816Z,95335.44
2022-11-18T22:38:47.155Z,95338.41
2022-11-18T22:41:40.527Z,95311.13
2022-11-18T22:44:14.736Z,95333.41
2022-11-18T22:46:43.516Z,95339.63
2022-11-18T22:49:11.397Z,95306.84
2022-11-18T22:51:39.283Z,95309.44
2022-11-18T22:56:54.238Z,95321.63
2022-11-18T22:59:21.363Z,95334.34
2022-11-18T23:01:50.646Z,95372.31
2022-11-18T23:04:17.328Z,95326.75
2022-11-18T23:06:44.052Z,95377.09
2022-11-18T23:09:10.820Z,95378.00
2022-11-18T23:11:56.109Z,95361.00
2022-11-18T23:14:22.863Z,95356.88
2022-11-18T23:16:49.605Z,95355.53
2022-11-18T23:19:17.593Z,95394.34
2022-11-18T23:21:45.093Z,95364.66
2022-11-18T23:24:13.980Z,95381.16
2022-11-18T23:26:42.027Z,95391.41
2022-11-18T23:29:10.351Z,95390.28
2022-11-18T23:31:37.034Z,95400.06
2022-11-18T23:34:03.721Z,95363.19
2022-11-18T23:36:30.477Z,95396.59
2022-11-18T23:38:57.193Z,95370.06
2022-11-18T23:41:24.070Z,95390.00
2022-11-18T23:43:52.079Z,95386.16
2022-11-18T23:46:19.676Z,95394.56
2022-11-18T23:48:47.438Z,95383.75
2022-11-18T23:51:20.552Z,95400.81
2022-11-18T23:53:51.016Z,95413.53
2022-11-18T23:56:19.330Z,95413.53
2022-11-18T23:58:48.595Z,95406.63
